sensor_id;sensor_type;location;lat;lon;timestamp;pressure;altitude;pressure_sealevel;temperature;humidity
47530;BME280;33272;51.922;7.730;2023-04-24T00:01:43;145471.91;;;11.98;100.00
47530;BME280;33272;51.922;7.730;2023-04-24T00:04:10;145468.06;;;11.97;100.00
47530;BME280;33272;51.922;7.730;2023-04-24T00:06:43;145455.41;;;11.92;100.00
47530;BME280;33272;51.922;7.730;2023-04-24T00:09:15;145447.78;;;11.89;100.00
47530;BME280;33272;51.922;7.730;2023-04-24T00:11:42;145466.81;;;11.96;100.00
47530;BME280;33272;51.922;7.730;2023-04-24T00:14:09;145451.56;;;11.90;100.00
47530;BME280;33272;51.922;7.730;2023-04-24T00:16:36;145469.31;;;11.97;100.00
47530;BME280;33272;51.922;7.730;2023-04-24T00:19:03;145461.72;;;11.94;100.00
47530;BME280;33272;51.922;7.730;2023-04-24T00:21:31;145482.03;;;12.02;100.00
47530;BME280;33272;51.922;7.730;2023-04-24T00:24:00;145494.75;;;12.08;100.00
47530;BME280;33272;51.922;7.730;2023-04-24T00:26:27;145490.91;;;12.06;100.00
47530;BME280;33272;51.922;7.730;2023-04-24T00:28:54;145482.03;;;12.02;100.00
47530;BME280;33272;51.922;7.730;2023-04-24T00:31:21;145471.91;;;11.98;100.00
47530;BME280;33272;51.922;7.730;2023-04-24T00:33:48;145489.66;;;12.05;100.00
47530;BME280;33272;51.922;7.730;2023-04-24T00:36:15;145478.19;;;12.01;100.00
47530;BME280;33272;51.922;7.730;2023-04-24T00:38:42;145489.66;;;12.05;100.00
47530;BME280;33272;51.922;7.730;2023-04-24T00:41:10;145464.28;;;11.95;100.00
47530;BME280;33272;51.922;7.730;2023-04-24T00:43:37;145478.19;;;12.01;100.00
47530;BME280;33272;51.922;7.730;2023-04-24T00:46:05;145468.06;;;11.97;100.00
47530;BME280;33272;51.922;7.730;2023-04-24T00:48:32;145464.28;;;11.95;100.00
47530;BME280;33272;51.922;7.730;2023-04-24T00:50:59;145449.06;;;11.89;100.00
47530;BME280;33272;51.922;7.730;2023-04-24T00:53:26;145431.22;;;11.82;100.00
47530;BME280;33272;51.922;7.730;2023-04-24T00:55:54;145429.94;;;11.81;100.00
47530;BME280;33272;51.922;7.730;2023-04-24T00:58:22;145403.31;;;11.71;100.00
47530;BME280;33272;51.922;7.730;2023-04-24T01:00:50;145403.31;;;11.71;100.00
47530;BME280;33272;51.922;7.730;2023-04-24T01:03:19;145388.09;;;11.65;100.00
47530;BME280;33272;51.922;7.730;2023-04-24T01:05:48;145357.66;;;11.52;100.00
47530;BME280;33272;51.922;7.730;2023-04-24T01:08:16;145325.94;;;11.40;100.00
47530;BME280;33272;51.922;7.730;2023-04-24T01:10:44;145327.19;;;11.40;100.00
47530;BME280;33272;51.922;7.730;2023-04-24T01:13:11;145319.59;;;11.37;100.00
47530;BME280;33272;51.922;7.730;2023-04-24T01:15:40;145314.56;;;11.35;100.00
47530;BME280;33272;51.922;7.730;2023-04-24T01:18:07;145324.69;;;11.39;100.00
47530;BME280;33272;51.922;7.730;2023-04-24T01:20:34;145323.41;;;11.39;100.00
47530;BME280;33272;51.922;7.730;2023-04-24T01:23:03;145322.16;;;11.38;100.00
47530;BME280;33272;51.922;7.730;2023-04-24T01:25:31;145352.56;;;11.50;100.00
47530;BME280;33272;51.922;7.730;2023-04-24T01:27:58;145352.56;;;11.50;100.00
47530;BME280;33272;51.922;7.730;2023-04-24T01:30:26;145357.66;;;11.52;100.00
47530;BME280;33272;51.922;7.730;2023-04-24T01:32:53;145370.34;;;11.57;100.00
47530;BME280;33272;51.922;7.730;2023-04-24T01:35:21;145394.44;;;11.67;100.00
47530;BME280;33272;51.922;7.730;2023-04-24T01:37:48;145391.88;;;11.66;100.00
47530;BME280;33272;51.922;7.730;2023-04-24T01:40:17;145398.22;;;11.69;100.00
47530;BME280;33272;51.922;7.730;2023-04-24T01:42:45;145398.22;;;11.69;100.00
47530;BME280;33272;51.922;7.730;2023-04-24T01:45:12;145394.44;;;11.67;100.00
47530;BME280;33272;51.922;7.730;2023-04-24T01:47:39;145385.56;;;11.64;100.00
47530;BME280;33272;51.922;7.730;2023-04-24T01:50:08;145390.63;;;11.66;100.00
47530;BME280;33272;51.922;7.730;2023-04-24T01:52:35;145398.22;;;11.69;100.00
47530;BME280;33272;51.922;7.730;2023-04-24T01:55:03;145393.19;;;11.67;100.00
47530;BME280;33272;51.922;7.730;2023-04-24T01:57:32;145374.13;;;11.59;100.00
47530;BME280;33272;51.922;7.730;2023-04-24T02:00:00;145379.22;;;11.61;100.00
47530;BME280;33272;51.922;7.730;2023-04-24T02:02:27;145353.88;;;11.51;100.00
47530;BME280;33272;51.922;7.730;2023-04-24T02:04:54;145361.47;;;11.54;100.00
47530;BME280;33272;51.922;7.730;2023-04-24T02:07:21;145360.16;;;11.53;100.00
47530;BME280;33272;51.922;7.730;2023-04-24T02:09:48;145355.13;;;11.51;100.00
47530;BME280;33272;51.922;7.730;2023-04-24T02:12:15;145353.88;;;11.51;100.00
47530;BME280;33272;51.922;7.730;2023-04-24T02:14:45;145336.06;;;11.44;100.00
47530;BME280;33272;51.922;7.730;2023-04-24T02:17:12;145296.75;;;11.28;100.00
47530;BME280;33272;51.922;7.730;2023-04-24T02:19:39;145289.16;;;11.25;100.00
47530;BME280;33272;51.922;7.730;2023-04-24T02:22:06;145263.78;;;11.14;100.00
47530;BME280;33272;51.922;7.730;2023-04-24T02:24:33;145235.88;;;11.03;100.00
47530;BME280;33272;51.922;7.730;2023-04-24T02:27:00;145202.94;;;10.90;100.00
47530;BME280;33272;51.922;7.730;2023-04-24T02:29:28;145181.41;;;10.81;100.00
47530;BME280;33272;51.922;7.730;2023-04-24T02:31:57;145154.75;;;10.71;100.00
47530;BME280;33272;51.922;7.730;2023-04-24T02:34:24;145131.94;;;10.61;100.00
47530;BME280;33272;51.922;7.730;2023-04-24T02:36:51;145107.88;;;10.52;100.00
47530;BME280;33272;51.922;7.730;2023-04-24T02:39:19;145091.41;;;10.45;100.00
47530;BME280;33272;51.922;7.730;2023-04-24T02:41:46;145068.59;;;10.36;100.00
47530;BME280;33272;51.922;7.730;2023-04-24T02:44:13;145067.31;;;10.35;100.00
47530;BME280;33272;51.922;7.730;2023-04-24T02:46:40;145044.50;;;10.26;100.00
47530;BME280;33272;51.922;7.730;2023-04-24T02:49:09;145041.94;;;10.25;100.00
47530;BME280;33272;51.922;7.730;2023-04-24T02:51:37;145030.50;;;10.20;100.00
47530;BME280;33272;51.922;7.730;2023-04-24T02:54:07;145021.66;;;10.17;100.00
47530;BME280;33272;51.922;7.730;2023-04-24T02:56:35;145003.94;;;10.10;100.00
47530;BME280;33272;51.922;7.730;2023-04-24T02:59:02;144984.91;;;10.02;100.00
47530;BME280;33272;51.922;7.730;2023-04-24T03:01:29;144989.97;;;10.04;100.00
47530;BME280;33272;51.922;7.730;2023-04-24T03:03:56;144988.72;;;10.04;100.00
47530;BME280;33272;51.922;7.730;2023-04-24T03:06:25;144991.25;;;10.05;100.00
47530;BME280;33272;51.922;7.730;2023-04-24T03:08:52;144993.81;;;10.06;100.00
47530;BME280;33272;51.922;7.730;2023-04-24T03:11:20;145006.44;;;10.11;100.00
47530;BME280;33272;51.922;7.730;2023-04-24T03:13:47;144996.31;;;10.07;100.00
47530;BME280;33272;51.922;7.730;2023-04-24T03:16:14;144983.63;;;10.02;100.00
47530;BME280;33272;51.922;7.730;2023-04-24T03:18:41;144982.38;;;10.01;100.00
47530;BME280;33272;51.922;7.730;2023-04-24T03:21:08;144996.31;;;10.07;100.00
47530;BME280;33272;51.922;7.730;2023-04-24T03:23:36;144968.44;;;9.95;100.00
47530;BME280;33272;51.922;7.730;2023-04-24T03:26:03;144988.72;;;10.04;100.00
47530;BME280;33272;51.922;7.730;2023-04-24T03:28:31;144988.72;;;10.04;100.00
47530;BME280;33272;51.922;7.730;2023-04-24T03:30:57;144983.63;;;10.02;100.00
47530;BME280;33272;51.922;7.730;2023-04-24T03:33:25;144982.38;;;10.01;100.00
47530;BME280;33272;51.922;7.730;2023-04-24T03:35:52;144978.59;;;10.00;100.00
47530;BME280;33272;51.922;7.730;2023-04-24T03:38:19;144965.91;;;9.94;100.00
47530;BME280;33272;51.922;7.730;2023-04-24T03:40:47;144962.09;;;9.93;100.00
47530;BME280;33272;51.922;7.730;2023-04-24T03:43:14;144943.13;;;9.85;100.00
47530;BME280;33272;51.922;7.730;2023-04-24T03:45:41;144933.00;;;9.81;100.00
47530;BME280;33272;51.922;7.730;2023-04-24T03:48:08;144935.50;;;9.82;100.00
47530;BME280;33272;51.922;7.730;2023-04-24T03:50:35;144951.97;;;9.89;100.00
47530;BME280;33272;51.922;7.730;2023-04-24T03:53:02;144958.31;;;9.91;100.00
47530;BME280;33272;51.922;7.730;2023-04-24T03:55:29;144968.44;;;9.95;100.00
47530;BME280;33272;51.922;7.730;2023-04-24T03:57:57;144978.59;;;10.00;100.00
47530;BME280;33272;51.922;7.730;2023-04-24T04:00:24;144988.72;;;10.04;100.00
47530;BME280;33272;51.922;7.730;2023-04-24T04:02:51;144973.53;;;9.97;100.00
47530;BME280;33272;51.922;7.730;2023-04-24T04:05:18;144955.78;;;9.90;100.00
47530;BME280;33272;51.922;7.730;2023-04-24T04:07:45;144989.97;;;10.04;100.00
47530;BME280;33272;51.922;7.730;2023-04-24T04:10:12;145007.72;;;10.11;100.00
47530;BME280;33272;51.922;7.730;2023-04-24T04:12:39;144995.06;;;10.06;100.00
47530;BME280;33272;51.922;7.730;2023-04-24T04:15:09;144974.78;;;9.98;100.00
47530;BME280;33272;51.922;7.730;2023-04-24T04:17:36;144995.06;;;10.06;100.00
47530;BME280;33272;51.922;7.730;2023-04-24T04:20:04;145007.72;;;10.11;100.00
47530;BME280;33272;51.922;7.730;2023-04-24T04:22:35;144998.84;;;10.08;100.00
47530;BME280;33272;51.922;7.730;2023-04-24T04:25:02;145003.94;;;10.10;100.00
47530;BME280;33272;51.922;7.730;2023-04-24T04:27:29;145015.31;;;10.14;100.00
47530;BME280;33272;51.922;7.730;2023-04-24T04:29:58;144993.81;;;10.06;100.00
47530;BME280;33272;51.922;7.730;2023-04-24T04:32:28;145019.13;;;10.16;100.00
47530;BME280;33272;51.922;7.730;2023-04-24T04:34:55;145025.47;;;10.18;100.00
47530;BME280;33272;51.922;7.730;2023-04-24T04:37:22;145016.56;;;10.15;100.00
47530;BME280;33272;51.922;7.730;2023-04-24T04:39:49;145012.78;;;10.13;100.00
47530;BME280;33272;51.922;7.730;2023-04-24T04:42:16;145000.09;;;10.08;100.00
47530;BME280;33272;51.922;7.730;2023-04-24T04:44:44;145021.66;;;10.17;100.00
47530;BME280;33272;51.922;7.730;2023-04-24T04:47:12;145038.13;;;10.24;100.00
47530;BME280;33272;51.922;7.730;2023-04-24T04:49:40;145053.38;;;10.30;100.00
47530;BME280;33272;51.922;7.730;2023-04-24T04:52:08;145062.25;;;10.33;100.00
47530;BME280;33272;51.922;7.730;2023-04-24T04:54:35;145059.72;;;10.32;100.00
47530;BME280;33272;51.922;7.730;2023-04-24T04:57:02;145062.25;;;10.33;100.00
47530;BME280;33272;51.922;7.730;2023-04-24T04:59:29;145050.84;;;10.29;100.00
47530;BME280;33272;51.922;7.730;2023-04-24T05:01:56;145082.53;;;10.41;100.00
47530;BME280;33272;51.922;7.730;2023-04-24T05:04:23;145083.78;;;10.42;100.00
47530;BME280;33272;51.922;7.730;2023-04-24T05:06:52;145091.41;;;10.45;100.00
47530;BME280;33272;51.922;7.730;2023-04-24T05:09:19;145093.91;;;10.46;100.00
47530;BME280;33272;51.922;7.730;2023-04-24T05:11:46;145082.53;;;10.41;100.00
47530;BME280;33272;51.922;7.730;2023-04-24T05:14:13;145074.94;;;10.38;100.00
47530;BME280;33272;51.922;7.730;2023-04-24T05:16:40;145082.53;;;10.41;100.00
47530;BME280;33272;51.922;7.730;2023-04-24T05:19:07;145092.66;;;10.46;100.00
47530;BME280;33272;51.922;7.730;2023-04-24T05:21:34;145107.88;;;10.52;100.00
47530;BME280;33272;51.922;7.730;2023-04-24T05:24:03;145119.31;;;10.56;100.00
47530;BME280;33272;51.922;7.730;2023-04-24T05:26:30;145123.09;;;10.58;100.00
47530;BME280;33272;51.922;7.730;2023-04-24T05:28:57;145111.69;;;10.53;100.00
47530;BME280;33272;51.922;7.730;2023-04-24T05:31:24;145119.31;;;10.56;100.00
47530;BME280;33272;51.922;7.730;2023-04-24T05:33:51;145147.16;;;10.67;100.00
47530;BME280;33272;51.922;7.730;2023-04-24T05:36:18;145116.72;;;10.55;100.00
47530;BME280;33272;51.922;7.730;2023-04-24T05:38:45;145109.13;;;10.52;100.00
47530;BME280;33272;51.922;7.730;2023-04-24T05:41:14;145099.00;;;10.48;100.00
47530;BME280;33272;51.922;7.730;2023-04-24T05:43:40;145128.16;;;10.60;100.00
47530;BME280;33272;51.922;7.730;2023-04-24T05:46:07;145151.00;;;10.69;100.00
47530;BME280;33272;51.922;7.730;2023-04-24T05:48:34;145147.16;;;10.67;100.00
47530;BME280;33272;51.922;7.730;2023-04-24T05:51:01;145163.63;;;10.74;100.00
47530;BME280;33272;51.922;7.730;2023-04-24T05:53:28;145167.47;;;10.76;100.00
47530;BME280;33272;51.922;7.730;2023-04-24T05:55:56;145178.84;;;10.80;100.00
47530;BME280;33272;51.922;7.730;2023-04-24T05:58:24;145172.50;;;10.78;100.00
47530;BME280;33272;51.922;7.730;2023-04-24T06:00:51;145149.69;;;10.68;100.00
47530;BME280;33272;51.922;7.730;2023-04-24T06:03:18;145142.06;;;10.65;100.00
47530;BME280;33272;51.922;7.730;2023-04-24T06:05:45;145131.94;;;10.61;100.00
47530;BME280;33272;51.922;7.730;2023-04-24T06:08:12;145156.03;;;10.71;100.00
47530;BME280;33272;51.922;7.730;2023-04-24T06:10:42;145161.13;;;10.73;100.00
47530;BME280;33272;51.922;7.730;2023-04-24T06:13:09;145158.59;;;10.72;100.00
47530;BME280;33272;51.922;7.730;2023-04-24T06:15:38;145148.41;;;10.68;100.00
47530;BME280;33272;51.922;7.730;2023-04-24T06:18:06;145161.13;;;10.73;100.00
47530;BME280;33272;51.922;7.730;2023-04-24T06:20:33;145149.69;;;10.68;100.00
47530;BME280;33272;51.922;7.730;2023-04-24T06:23:00;145159.84;;;10.73;100.00
47530;BME280;33272;51.922;7.730;2023-04-24T06:25:28;145159.84;;;10.73;100.00
47530;BME280;33272;51.922;7.730;2023-04-24T06:27:56;145140.81;;;10.65;100.00
47530;BME280;33272;51.922;7.730;2023-04-24T06:30:23;145131.94;;;10.61;100.00
47530;BME280;33272;51.922;7.730;2023-04-24T06:32:52;145158.59;;;10.72;100.00
47530;BME280;33272;51.922;7.730;2023-04-24T06:35:19;145164.88;;;10.75;100.00
47530;BME280;33272;51.922;7.730;2023-04-24T06:37:46;145149.69;;;10.68;100.00
47530;BME280;33272;51.922;7.730;2023-04-24T06:40:13;145119.31;;;10.56;100.00
47530;BME280;33272;51.922;7.730;2023-04-24T06:42:40;145149.69;;;10.68;100.00
47530;BME280;33272;51.922;7.730;2023-04-24T06:45:08;145139.56;;;10.64;100.00
47530;BME280;33272;51.922;7.730;2023-04-24T06:47:36;145152.25;;;10.70;100.00
47530;BME280;33272;51.922;7.730;2023-04-24T06:50:06;145163.63;;;10.74;100.00
47530;BME280;33272;51.922;7.730;2023-04-24T06:52:33;145173.81;;;10.78;100.00
47530;BME280;33272;51.922;7.730;2023-04-24T06:55:01;145172.50;;;10.78;100.00
47530;BME280;33272;51.922;7.730;2023-04-24T06:57:29;145157.28;;;10.72;100.00
47530;BME280;33272;51.922;7.730;2023-04-24T06:59:56;145123.09;;;10.58;100.00
47530;BME280;33272;51.922;7.730;2023-04-24T07:02:23;145093.91;;;10.46;100.00
47530;BME280;33272;51.922;7.730;2023-04-24T07:04:50;145112.94;;;10.54;100.00
47530;BME280;33272;51.922;7.730;2023-04-24T07:07:19;145060.97;;;10.33;100.00
47530;BME280;33272;51.922;7.730;2023-04-24T07:09:47;145077.44;;;10.39;100.00
47530;BME280;33272;51.922;7.730;2023-04-24T07:12:14;145058.47;;;10.32;100.00
47530;BME280;33272;51.922;7.730;2023-04-24T07:14:42;145088.88;;;10.44;100.00
47530;BME280;33272;51.922;7.730;2023-04-24T07:17:09;145121.81;;;10.57;100.00
47530;BME280;33272;51.922;7.730;2023-04-24T07:19:38;145126.91;;;10.59;100.00
47530;BME280;33272;51.922;7.730;2023-04-24T07:22:05;145147.16;;;10.67;100.00
47530;BME280;33272;51.922;7.730;2023-04-24T07:24:34;145148.41;;;10.68;100.00
47530;BME280;33272;51.922;7.730;2023-04-24T07:27:01;145135.78;;;10.63;100.00
47530;BME280;33272;51.922;7.730;2023-04-24T07:29:28;145129.44;;;10.60;100.00
47530;BME280;33272;51.922;7.730;2023-04-24T07:31:55;145148.41;;;10.68;100.00
47530;BME280;33272;51.922;7.730;2023-04-24T07:34:23;145142.06;;;10.65;100.00
47530;BME280;33272;51.922;7.730;2023-04-24T07:36:50;145173.81;;;10.78;100.00
47530;BME280;33272;51.922;7.730;2023-04-24T07:39:17;145211.78;;;10.94;100.00
47530;BME280;33272;51.922;7.730;2023-04-24T07:41:46;145243.50;;;11.06;100.00
47530;BME280;33272;51.922;7.730;2023-04-24T07:44:13;145249.84;;;11.09;100.00
47530;BME280;33272;51.922;7.730;2023-04-24T07:46:40;145286.63;;;11.24;100.00
47530;BME280;33272;51.922;7.730;2023-04-24T07:49:07;145305.63;;;11.31;100.00
47530;BME280;33272;51.922;7.730;2023-04-24T07:51:34;145277.75;;;11.20;100.00
47530;BME280;33272;51.922;7.730;2023-04-24T07:54:04;145271.41;;;11.18;100.00
47530;BME280;33272;51.922;7.730;2023-04-24T07:56:32;145209.28;;;10.93;100.00
47530;BME280;33272;51.922;7.730;2023-04-24T07:59:00;145232.09;;;11.02;100.00
47530;BME280;33272;51.922;7.730;2023-04-24T08:01:27;145192.81;;;10.86;100.00
47530;BME280;33272;51.922;7.730;2023-04-24T08:03:56;145242.22;;;11.06;100.00
47530;BME280;33272;51.922;7.730;2023-04-24T08:06:23;145191.53;;;10.85;100.00
47530;BME280;33272;51.922;7.730;2023-04-24T08:08:51;145176.31;;;10.79;100.00
47530;BME280;33272;51.922;7.730;2023-04-24T08:11:18;145216.88;;;10.96;100.00
47530;BME280;33272;51.922;7.730;2023-04-24T08:13:45;145183.94;;;10.82;100.00
47530;BME280;33272;51.922;7.730;2023-04-24T08:16:13;145199.16;;;10.88;100.00
47530;BME280;33272;51.922;7.730;2023-04-24T08:18:40;145227.00;;;11.00;100.00
47530;BME280;33272;51.922;7.730;2023-04-24T08:21:07;145234.63;;;11.03;100.00
47530;BME280;33272;51.922;7.730;2023-04-24T08:23:34;145227.00;;;11.00;100.00
47530;BME280;33272;51.922;7.730;2023-04-24T08:26:01;145281.53;;;11.22;100.00
47530;BME280;33272;51.922;7.730;2023-04-24T08:28:29;145248.59;;;11.08;100.00
47530;BME280;33272;51.922;7.730;2023-04-24T08:30:56;145265.06;;;11.15;100.00
47530;BME280;33272;51.922;7.730;2023-04-24T08:33:24;145244.81;;;11.07;100.00
47530;BME280;33272;51.922;7.730;2023-04-24T08:35:52;145221.97;;;10.98;100.00
47530;BME280;33272;51.922;7.730;2023-04-24T08:38:19;145173.81;;;10.78;100.00
47530;BME280;33272;51.922;7.730;2023-04-24T08:40:47;145216.88;;;10.96;100.00
47530;BME280;33272;51.922;7.730;2023-04-24T08:43:16;145171.25;;;10.77;100.00
47530;BME280;33272;51.922;7.730;2023-04-24T08:45:43;145142.06;;;10.65;100.00
47530;BME280;33272;51.922;7.730;2023-04-24T08:48:10;145144.63;;;10.66;100.00
47530;BME280;33272;51.922;7.730;2023-04-24T08:50:40;145156.03;;;10.71;100.00
47530;BME280;33272;51.922;7.730;2023-04-24T08:53:10;145131.94;;;10.61;100.00
47530;BME280;33272;51.922;7.730;2023-04-24T08:55:38;145091.41;;;10.45;100.00
47530;BME280;33272;51.922;7.730;2023-04-24T08:58:05;145091.41;;;10.45;100.00
47530;BME280;33272;51.922;7.730;2023-04-24T09:00:32;145091.41;;;10.45;100.00
47530;BME280;33272;51.922;7.730;2023-04-24T09:03:01;145090.13;;;10.44;100.00
47530;BME280;33272;51.922;7.730;2023-04-24T09:05:30;145039.38;;;10.24;100.00
47530;BME280;33272;51.922;7.730;2023-04-24T09:07:59;145053.38;;;10.30;100.00
47530;BME280;33272;51.922;7.730;2023-04-24T09:10:28;145025.47;;;10.18;100.00
47530;BME280;33272;51.922;7.730;2023-04-24T09:12:56;145059.72;;;10.32;100.00
47530;BME280;33272;51.922;7.730;2023-04-24T09:15:27;145074.94;;;10.38;100.00
47530;BME280;33272;51.922;7.730;2023-04-24T09:17:54;145080.00;;;10.40;100.00
47530;BME280;33272;51.922;7.730;2023-04-24T09:20:22;145081.28;;;10.41;100.00
47530;BME280;33272;51.922;7.730;2023-04-24T09:22:54;145096.50;;;10.47;100.00
47530;BME280;33272;51.922;7.730;2023-04-24T09:25:23;145088.88;;;10.44;100.00
47530;BME280;33272;51.922;7.730;2023-04-24T09:27:54;145126.91;;;10.59;100.00
47530;BME280;33272;51.922;7.730;2023-04-24T09:30:22;145143.38;;;10.66;100.00
47530;BME280;33272;51.922;7.730;2023-04-24T09:32:49;145156.03;;;10.71;100.00
47530;BME280;33272;51.922;7.730;2023-04-24T09:35:16;145172.50;;;10.78;100.00
47530;BME280;33272;51.922;7.730;2023-04-24T09:37:46;145129.44;;;10.60;100.00
47530;BME280;33272;51.922;7.730;2023-04-24T09:40:16;145073.66;;;10.38;100.00
47530;BME280;33272;51.922;7.730;2023-04-24T09:42:46;145086.31;;;10.43;100.00
47530;BME280;33272;51.922;7.730;2023-04-24T09:45:14;145090.13;;;10.44;100.00
47530;BME280;33272;51.922;7.730;2023-04-24T09:47:42;145039.38;;;10.24;100.00
47530;BME280;33272;51.922;7.730;2023-04-24T09:50:14;145011.53;;;10.13;100.00
47530;BME280;33272;51.922;7.730;2023-04-24T09:52:46;145012.78;;;10.13;100.00
47530;BME280;33272;51.922;7.730;2023-04-24T09:55:18;144973.53;;;9.97;100.00
47530;BME280;33272;51.922;7.730;2023-04-24T09:57:51;144954.53;;;9.90;100.00
47530;BME280;33272;51.922;7.730;2023-04-24T10:00:22;144917.78;;;9.75;100.00
47530;BME280;33272;51.922;7.730;2023-04-24T10:02:56;144922.81;;;9.77;100.00
47530;BME280;33272;51.922;7.730;2023-04-24T10:05:25;144939.34;;;9.84;100.00
47530;BME280;33272;51.922;7.730;2023-04-24T10:07:59;144945.63;;;9.86;100.00
47530;BME280;33272;51.922;7.730;2023-04-24T10:10:26;144972.25;;;9.97;100.00
47530;BME280;33272;51.922;7.730;2023-04-24T10:12:56;144981.13;;;10.01;100.00
47530;BME280;33272;51.922;7.730;2023-04-24T10:15:24;144981.13;;;10.01;100.00
47530;BME280;33272;51.922;7.730;2023-04-24T10:17:59;144973.53;;;9.97;100.00
47530;BME280;33272;51.922;7.730;2023-04-24T10:20:29;144984.91;;;10.02;100.00
47530;BME280;33272;51.922;7.730;2023-04-24T10:22:58;144951.97;;;9.89;100.00
47530;BME280;33272;51.922;7.730;2023-04-24T10:25:28;144978.59;;;10.00;100.00
47530;BME280;33272;51.922;7.730;2023-04-24T10:27:58;144984.91;;;10.02;100.00
47530;BME280;33272;51.922;7.730;2023-04-24T10:30:27;145010.28;;;10.12;100.00
47530;BME280;33272;51.922;7.730;2023-04-24T10:32:54;144987.47;;;10.03;100.00
47530;BME280;33272;51.922;7.730;2023-04-24T10:35:22;145040.69;;;10.25;100.00
47530;BME280;33272;51.922;7.730;2023-04-24T10:37:56;145067.31;;;10.35;100.00
47530;BME280;33272;51.922;7.730;2023-04-24T10:40:27;145026.75;;;10.19;100.00
47530;BME280;33272;51.922;7.730;2023-04-24T10:42:55;145021.66;;;10.17;100.00
47530;BME280;33272;51.922;7.730;2023-04-24T10:45:24;145006.44;;;10.11;100.00
47530;BME280;33272;51.922;7.730;2023-04-24T10:47:53;145016.56;;;10.15;100.00
47530;BME280;33272;51.922;7.730;2023-04-24T10:50:20;145034.34;;;10.22;100.00
47530;BME280;33272;51.922;7.730;2023-04-24T10:52:48;144960.84;;;9.92;100.00
47530;BME280;33272;51.922;7.730;2023-04-24T10:55:41;144936.78;;;9.83;100.00
47530;BME280;33272;51.922;7.730;2023-04-24T10:58:10;144908.94;;;9.71;100.00
47530;BME280;33272;51.922;7.730;2023-04-24T11:00:38;144888.66;;;9.63;100.00
47530;BME280;33272;51.922;7.730;2023-04-24T11:03:06;144891.16;;;9.64;100.00
47530;BME280;33272;51.922;7.730;2023-04-24T11:05:57;144916.53;;;9.74;100.00
47530;BME280;33272;51.922;7.730;2023-04-24T11:08:28;144867.09;;;9.55;100.00
47530;BME280;33272;51.922;7.730;2023-04-24T11:10:59;144873.44;;;9.57;100.00
47530;BME280;33272;51.922;7.730;2023-04-24T11:14:07;144886.13;;;9.62;100.00
47530;BME280;33272;51.922;7.730;2023-04-24T11:16:41;144881.06;;;9.60;100.00
47530;BME280;33272;51.922;7.730;2023-04-24T11:19:18;144881.06;;;9.60;100.00
47530;BME280;33272;51.922;7.730;2023-04-24T11:21:47;144872.19;;;9.57;100.00
47530;BME280;33272;51.922;7.730;2023-04-24T11:24:25;144872.19;;;9.57;100.00
47530;BME280;33272;51.922;7.730;2023-04-24T11:26:53;144877.28;;;9.59;100.00
47530;BME280;33272;51.922;7.730;2023-04-24T11:29:22;144884.88;;;9.62;100.00
47530;BME280;33272;51.922;7.730;2023-04-24T11:31:50;144892.47;;;9.65;100.00
47530;BME280;33272;51.922;7.730;2023-04-24T11:34:18;144911.44;;;9.72;100.00
47530;BME280;33272;51.922;7.730;2023-04-24T11:36:46;144898.78;;;9.67;100.00
47530;BME280;33272;51.922;7.730;2023-04-24T11:39:14;144936.78;;;9.83;100.00
47530;BME280;33272;51.922;7.730;2023-04-24T11:41:41;144963.41;;;9.93;100.00
47530;BME280;33272;51.922;7.730;2023-04-24T11:44:09;144978.59;;;10.00;100.00
47530;BME280;33272;51.922;7.730;2023-04-24T11:46:38;144993.81;;;10.06;100.00
47530;BME280;33272;51.922;7.730;2023-04-24T11:49:06;145000.09;;;10.08;100.00
47530;BME280;33272;51.922;7.730;2023-04-24T11:51:33;144968.44;;;9.95;100.00
47530;BME280;33272;51.922;7.730;2023-04-24T11:54:00;144912.72;;;9.73;100.00
47530;BME280;33272;51.922;7.730;2023-04-24T11:56:27;144892.47;;;9.65;100.00
47530;BME280;33272;51.922;7.730;2023-04-24T11:58:54;144891.16;;;9.64;100.00
47530;BME280;33272;51.922;7.730;2023-04-24T12:01:21;144884.88;;;9.62;100.00
47530;BME280;33272;51.922;7.730;2023-04-24T12:03:50;144879.78;;;9.60;100.00
47530;BME280;33272;51.922;7.730;2023-04-24T12:06:25;144889.91;;;9.64;100.00
47530;BME280;33272;51.922;7.730;2023-04-24T12:08:53;144927.91;;;9.79;100.00
47530;BME280;33272;51.922;7.730;2023-04-24T12:11:20;144925.41;;;9.78;100.00
47530;BME280;33272;51.922;7.730;2023-04-24T12:13:47;144922.81;;;9.77;100.00
47530;BME280;33272;51.922;7.730;2023-04-24T12:16:15;144962.09;;;9.93;100.00
47530;BME280;33272;51.922;7.730;2023-04-24T12:18:43;145001.41;;;10.09;100.00
47530;BME280;33272;51.922;7.730;2023-04-24T12:21:22;144951.97;;;9.89;100.00
47530;BME280;33272;51.922;7.730;2023-04-24T12:23:54;145003.94;;;10.10;100.00
47530;BME280;33272;51.922;7.730;2023-04-24T12:26:21;144991.25;;;10.05;100.00
47530;BME280;33272;51.922;7.730;2023-04-24T12:28:50;144892.47;;;9.65;100.00
47530;BME280;33272;51.922;7.730;2023-04-24T12:31:17;144875.97;;;9.58;100.00
47530;BME280;33272;51.922;7.730;2023-04-24T12:33:44;144940.59;;;9.84;100.00
47530;BME280;33272;51.922;7.730;2023-04-24T12:36:12;144979.88;;;10.00;100.00
47530;BME280;33272;51.922;7.730;2023-04-24T12:38:43;144953.22;;;9.89;100.00
47530;BME280;33272;51.922;7.730;2023-04-24T12:41:13;144986.22;;;10.03;100.00
47530;BME280;33272;51.922;7.730;2023-04-24T12:43:51;144997.59;;;10.07;100.00
47530;BME280;33272;51.922;7.730;2023-04-24T12:46:19;145043.19;;;10.26;100.00
47530;BME280;33272;51.922;7.730;2023-04-24T12:48:46;145096.50;;;10.47;100.00